Time;durP1;ratioP1;P1;durP2;ratioP2;P2;SDS_P1;SDS_P2;PMS_P1;PMS_P2;Temp;Humidity;BMP_temperature;BMP_pressure;BME280_temperature;BME280_humidity;BME280_pressure;Samples;Min_cycle;Max_cycle;Signal;HPM_P1;HPM_P2
2022/11/25 05:01:00;;;;;;;2.53;2.33;;;3.60;99.90;;;;;;5563958;23;20242;-70
2022/11/25 05:03:27;;;;;;;5.68;3.55;;;3.60;99.90;;;;;;4894775;29;20204;-71
2022/11/25 05:05:54;;;;;;;5.30;2.88;;;3.60;99.90;;;;;;4895428;29;20825;-71
2022/11/25 05:08:20;;;;;;;4.07;3.78;;;3.60;99.90;;;;;;4894647;29;20219;-71
2022/11/25 05:10:47;;;;;;;6.15;5.60;;;3.60;99.90;;;;;;4896152;29;20240;-71
2022/11/25 05:13:14;;;;;;;10.45;4.68;;;3.60;99.90;;;;;;4899514;29;20212;-71
2022/11/25 05:15:40;;;;;;;4.75;4.10;;;3.60;99.90;;;;;;4898995;29;20687;-71
2022/11/25 05:18:08;;;;;;;7.50;5.32;;;3.60;99.90;;;;;;4903813;29;20207;-70
2022/11/25 05:20:35;;;;;;;2.30;2.17;;;3.70;99.90;;;;;;4894733;29;20230;-71
2022/11/25 05:23:02;;;;;;;6.38;3.42;;;3.70;99.90;;;;;;4897609;29;20227;-71
2022/11/25 05:25:29;;;;;;;3.50;3.38;;;3.60;99.90;;;;;;4907749;29;20209;-71
2022/11/25 05:27:55;;;;;;;3.70;3.35;;;3.60;99.90;;;;;;4906884;29;20313;-70
2022/11/25 05:30:22;;;;;;;5.20;3.85;;;3.60;99.90;;;;;;4900467;29;20239;-70
2022/11/25 05:32:49;;;;;;;3.67;2.70;;;3.60;99.90;;;;;;4907124;29;20207;-70
2022/11/25 05:35:17;;;;;;;5.00;3.45;;;3.60;99.90;;;;;;4901263;29;20555;-71
2022/11/25 05:37:44;;;;;;;5.95;3.83;;;3.60;99.90;;;;;;4909315;29;20204;-71
2022/11/25 05:40:11;;;;;;;2.70;2.55;;;3.50;99.90;;;;;;4904239;29;20291;-72
2022/11/25 05:42:38;;;;;;;2.55;2.45;;;3.50;99.90;;;;;;4904598;29;20225;-72
2022/11/25 05:45:06;;;;;;;2.75;2.40;;;3.60;99.90;;;;;;4896746;29;20204;-72
2022/11/25 05:47:33;;;;;;;5.25;3.22;;;3.50;99.90;;;;;;4900128;29;20677;-71
2022/11/25 05:49:59;;;;;;;6.35;2.45;;;3.60;99.90;;;;;;4904012;29;20622;-71
2022/11/25 05:52:27;;;;;;;3.45;3.25;;;3.60;99.90;;;;;;4905443;29;20340;-71
2022/11/25 05:54:54;;;;;;;1.83;1.73;;;3.60;99.90;;;;;;4901427;29;20586;-71
2022/11/25 05:57:21;;;;;;;3.35;2.97;;;3.60;99.90;;;;;;4888366;29;20215;-69
2022/11/25 05:59:48;;;;;;;6.60;3.83;;;3.60;99.90;;;;;;4892365;29;20200;-69
2022/11/25 06:02:14;;;;;;;3.30;2.92;;;3.60;99.90;;;;;;4897433;29;20261;-69
2022/11/25 06:04:41;;;;;;;1.98;1.60;;;3.60;99.90;;;;;;4895150;29;20232;-70
2022/11/25 06:07:08;;;;;;;4.65;4.28;;;3.60;99.90;;;;;;4903481;29;20203;-70
2022/11/25 06:09:36;;;;;;;1.67;1.58;;;3.60;99.90;;;;;;4895411;29;20580;-72
2022/11/25 06:12:02;;;;;;;3.25;2.28;;;3.60;99.90;;;;;;4893013;29;20243;-69
2022/11/25 06:14:29;;;;;;;3.50;3.40;;;3.60;99.90;;;;;;4900638;29;20592;-70
2022/11/25 06:16:56;;;;;;;11.13;3.10;;;3.60;99.90;;;;;;4905456;29;20207;-70
2022/11/25 06:19:23;;;;;;;7.30;3.75;;;3.50;99.90;;;;;;4899940;29;20207;-69
2022/11/25 06:21:49;;;;;;;2.15;2.05;;;3.50;99.90;;;;;;4903748;29;20238;-69
2022/11/25 06:24:16;;;;;;;5.07;2.83;;;3.50;99.90;;;;;;4893051;29;20641;-69
2022/11/25 06:26:44;;;;;;;4.32;4.18;;;3.50;99.90;;;;;;4893791;29;20215;-69
2022/11/25 06:29:11;;;;;;;12.00;5.70;;;3.50;99.90;;;;;;4899672;29;20238;-69
2022/11/25 06:31:38;;;;;;;3.50;3.10;;;3.50;99.90;;;;;;4901963;29;20422;-69
2022/11/25 06:34:08;;;;;;;6.60;1.85;;;3.50;99.90;;;;;;4893246;29;20306;-69
2022/11/25 06:36:34;;;;;;;3.20;3.00;;;3.50;99.90;;;;;;4897556;29;20310;-69
2022/11/25 06:39:01;;;;;;;4.63;3.03;;;3.60;99.90;;;;;;4901830;29;20522;-69
2022/11/25 06:41:28;;;;;;;2.05;2.05;;;3.60;99.90;;;;;;4892627;29;20227;-69
2022/11/25 06:43:56;;;;;;;7.72;3.65;;;3.60;99.90;;;;;;4892945;29;20218;-69
2022/11/25 06:46:22;;;;;;;2.38;2.22;;;3.60;99.90;;;;;;4894422;29;20211;-69
2022/11/25 06:48:49;;;;;;;5.40;4.63;;;3.70;99.90;;;;;;4900406;29;20207;-69
2022/11/25 06:51:16;;;;;;;5.30;2.58;;;3.70;99.90;;;;;;4906708;29;20235;-69
2022/11/25 06:53:43;;;;;;;14.52;4.00;;;3.70;99.90;;;;;;4893553;29;20218;-70
2022/11/25 06:56:13;;;;;;;3.38;2.92;;;3.70;99.90;;;;;;4885472;29;20212;-70
2022/11/25 06:58:41;;;;;;;3.78;1.83;;;3.70;99.90;;;;;;4905496;29;20211;-70
2022/11/25 07:01:15;;;;;;;4.05;2.03;;;3.80;99.90;;;;;;4899894;29;20235;-69
2022/11/25 07:03:42;;;;;;;8.63;2.80;;;3.80;99.90;;;;;;4898878;29;20567;-70
2022/11/25 07:06:11;;;;;;;3.10;2.53;;;3.80;99.90;;;;;;4894586;29;20242;-70
2022/11/25 07:08:40;;;;;;;5.50;3.45;;;3.80;99.90;;;;;;4900542;29;20258;-70
2022/11/25 07:11:13;;;;;;;11.85;6.40;;;3.80;99.90;;;;;;4911846;29;20230;-70
2022/11/25 07:13:40;;;;;;;25.40;12.70;;;3.80;99.90;;;;;;4908944;29;20574;-70
2022/11/25 07:16:08;;;;;;;7.60;4.05;;;3.80;99.90;;;;;;4894707;29;20229;-70
2022/11/25 07:18:38;;;;;;;4.10;3.08;;;3.80;99.90;;;;;;4898253;29;20229;-70
2022/11/25 07:21:12;;;;;;;6.97;3.15;;;3.90;99.90;;;;;;4895461;29;20279;-69
2022/11/25 07:23:41;;;;;;;15.07;7.13;;;3.90;99.90;;;;;;4897871;29;21017;-70
2022/11/25 07:26:13;;;;;;;7.60;6.90;;;3.90;99.90;;;;;;4905325;29;21345;-70
2022/11/25 07:28:40;;;;;;;4.38;4.05;;;4.00;99.90;;;;;;4894806;29;20853;-70
2022/11/25 07:31:12;;;;;;;11.13;9.63;;;4.10;99.90;;;;;;4894605;29;20243;-70
2022/11/25 07:33:41;;;;;;;15.00;7.82;;;4.10;99.90;;;;;;4898441;29;20207;-71
2022/11/25 07:36:13;;;;;;;6.78;6.18;;;4.20;99.90;;;;;;4893958;29;20213;-70
2022/11/25 07:38:42;;;;;;;5.28;3.40;;;4.30;99.90;;;;;;4907319;29;20672;-69
2022/11/25 07:41:11;;;;;;;15.30;7.18;;;4.30;99.90;;;;;;4912798;29;20247;-69
2022/11/25 07:43:39;;;;;;;11.90;9.57;;;4.30;99.90;;;;;;4904333;29;20667;-69
2022/11/25 07:46:12;;;;;;;10.68;9.82;;;4.40;99.90;;;;;;4899345;29;20219;-69
2022/11/25 07:48:41;;;;;;;8.55;5.75;;;4.40;99.90;;;;;;4896918;29;20215;-70
2022/11/25 07:51:15;;;;;;;8.77;5.95;;;4.40;99.90;;;;;;4896696;29;20348;-69
2022/11/25 07:53:45;;;;;;;12.18;3.53;;;4.50;99.90;;;;;;4898394;29;20695;-70
2022/11/25 07:56:13;;;;;;;2.85;1.33;;;4.50;99.90;;;;;;4899212;29;20278;-70
2022/11/25 07:58:43;;;;;;;3.60;3.47;;;4.50;99.90;;;;;;4899037;29;20211;-70
2022/11/25 08:01:20;;;;;;;3.08;2.78;;;4.50;99.90;;;;;;4894379;29;20323;-70
2022/11/25 08:03:50;;;;;;;8.05;5.40;;;4.50;99.90;;;;;;4900276;29;20206;-69
2022/11/25 08:06:22;;;;;;;1.60;1.50;;;4.50;99.90;;;;;;4899410;29;20209;-69
2022/11/25 08:08:51;;;;;;;2.33;2.22;;;4.50;99.90;;;;;;4887572;29;20306;-69
2022/11/25 08:11:21;;;;;;;5.47;3.55;;;4.60;99.90;;;;;;4891039;29;20236;-71
2022/11/25 08:13:51;;;;;;;4.38;3.33;;;4.60;99.90;;;;;;4889547;29;20306;-69
2022/11/25 08:16:22;;;;;;;2.15;2.05;;;4.60;99.90;;;;;;4890756;29;20208;-69
2022/11/25 08:18:51;;;;;;;3.70;3.58;;;4.60;99.90;;;;;;4891164;29;20209;-68
2022/11/25 08:21:28;;;;;;;1.90;1.33;;;4.70;99.90;;;;;;4893489;29;20233;-69
2022/11/25 08:23:57;;;;;;;4.95;3.45;;;4.70;99.90;;;;;;4898550;29;20212;-69
2022/11/25 08:26:29;;;;;;;5.30;4.90;;;4.70;99.90;;;;;;4893069;29;20216;-69
2022/11/25 08:28:57;;;;;;;4.97;2.97;;;4.80;99.90;;;;;;4891259;29;20240;-69
2022/11/25 08:31:28;;;;;;;3.42;3.20;;;4.80;99.90;;;;;;4901042;29;20244;-69
2022/11/25 08:33:57;;;;;;;3.80;2.38;;;4.90;99.90;;;;;;4911879;29;20210;-69
2022/11/25 08:36:32;;;;;;;3.88;3.42;;;5.00;99.90;;;;;;4896937;29;20212;-69
2022/11/25 08:39:04;;;;;;;3.63;3.33;;;5.00;99.90;;;;;;4892741;29;20322;-70
2022/11/25 08:41:33;;;;;;;9.93;3.35;;;5.00;99.90;;;;;;4894529;29;20232;-69
2022/11/25 08:44:02;;;;;;;6.40;3.97;;;5.00;99.90;;;;;;4892823;29;20212;-69
2022/11/25 08:46:41;;;;;;;24.48;14.02;;;5.10;99.90;;;;;;4897305;29;20211;-68
2022/11/25 08:49:15;;;;;;;11.82;8.60;;;5.10;99.90;;;;;;4888023;29;20414;-69
2022/11/25 08:51:47;;;;;;;5.82;5.38;;;5.20;99.90;;;;;;4898250;29;20713;-68
2022/11/25 08:54:15;;;;;;;2.72;2.50;;;5.20;99.90;;;;;;4913839;29;20238;-69
2022/11/25 08:56:45;;;;;;;6.82;4.32;;;5.20;99.90;;;;;;4900878;29;20231;-70
2022/11/25 08:59:12;;;;;;;5.35;3.50;;;5.20;99.90;;;;;;4894906;29;20216;-69
2022/11/25 09:01:44;;;;;;;5.00;4.55;;;5.20;99.90;;;;;;4895329;29;20345;-69
2022/11/25 09:04:13;;;;;;;0.98;0.90;;;5.30;99.90;;;;;;4899913;29;20208;-68
2022/11/25 09:06:47;;;;;;;2.90;2.63;;;5.30;99.90;;;;;;4903161;29;20209;-68
2022/11/25 09:09:16;;;;;;;1.30;1.20;;;5.30;99.90;;;;;;4895066;29;20302;-69
2022/11/25 09:11:43;;;;;;;1.10;1.10;;;5.30;99.90;;;;;;4900181;29;20230;-69
2022/11/25 09:14:18;;;;;;;4.07;3.70;;;5.30;99.90;;;;;;4894665;29;20208;-68
2022/11/25 09:16:50;;;;;;;2.22;2.05;;;5.30;99.90;;;;;;4906126;29;20215;-70
2022/11/25 09:19:20;;;;;;;3.20;2.90;;;5.30;99.90;;;;;;4893138;29;20227;-69
2022/11/25 09:21:49;;;;;;;2.78;2.58;;;5.40;99.90;;;;;;4893504;29;20747;-68
2022/11/25 09:24:18;;;;;;;2.42;2.33;;;5.40;99.90;;;;;;4898106;29;20224;-68
2022/11/25 09:26:50;;;;;;;3.90;2.17;;;5.40;99.90;;;;;;4902254;29;20296;-69
2022/11/25 09:29:18;;;;;;;16.50;3.20;;;5.40;99.90;;;;;;4891372;29;20349;-69
2022/11/25 09:31:48;;;;;;;6.40;3.05;;;5.50;99.90;;;;;;4903609;29;20627;-69
2022/11/25 09:34:15;;;;;;;3.70;3.40;;;5.50;99.90;;;;;;4893218;29;20244;-69
2022/11/25 09:36:48;;;;;;;4.25;3.88;;;5.60;99.90;;;;;;4905492;29;20206;-69
2022/11/25 09:39:17;;;;;;;8.80;4.75;;;5.70;99.90;;;;;;4897790;29;20304;-70
2022/11/25 09:47:59;;;;;;;7.32;5.25;;;5.70;99.90;;;;;;4897854;29;20259;-70
2022/11/25 09:50:39;;;;;;;4.03;3.72;;;5.80;99.90;;;;;;4903553;29;20574;-69
2022/11/25 09:53:18;;;;;;;15.63;6.75;;;5.80;99.90;;;;;;4901946;29;20290;-70
2022/11/25 09:55:49;;;;;;;2.95;2.30;;;5.80;99.90;;;;;;4895232;29;20211;-70
2022/11/25 09:58:26;;;;;;;3.22;3.13;;;5.70;99.90;;;;;;4896986;29;20200;-69
2022/11/25 10:00:54;;;;;;;4.00;3.83;;;5.80;99.90;;;;;;4893358;29;20334;-69
2022/11/25 10:03:32;;;;;;;5.05;2.80;;;5.80;99.90;;;;;;4894025;29;20215;-70
2022/11/25 10:06:05;;;;;;;2.83;2.55;;;5.80;99.90;;;;;;4895364;29;20219;-70
2022/11/25 10:08:40;;;;;;;2.50;2.05;;;5.70;99.90;;;;;;4890220;29;20220;-70
2022/11/25 10:11:22;;;;;;;7.47;2.92;;;5.80;99.90;;;;;;4903620;29;20865;-70
2022/11/25 10:13:57;;;;;;;7.22;2.83;;;5.80;99.90;;;;;;4895643;29;20574;-70
2022/11/25 10:16:33;;;;;;;10.13;2.97;;;5.80;99.90;;;;;;4895241;29;20805;-70
2022/11/25 10:19:09;;;;;;;3.70;2.92;;;5.80;99.90;;;;;;4895278;29;20230;-69
2022/11/25 10:21:37;;;;;;;2.85;2.65;;;5.90;99.90;;;;;;4894163;29;20598;-69
2022/11/25 10:24:10;;;;;;;4.70;4.25;;;5.90;99.90;;;;;;4902042;29;20216;-69
2022/11/25 10:26:43;;;;;;;9.20;5.30;;;6.00;99.90;;;;;;4889526;29;20213;-68
2022/11/25 10:29:26;;;;;;;2.83;2.60;;;6.10;99.90;;;;;;4895551;29;20357;-68
2022/11/25 10:32:10;;;;;;;3.88;3.53;;;6.10;99.90;;;;;;4905408;29;20231;-69
2022/11/25 10:34:44;;;;;;;3.00;2.72;;;6.10;99.90;;;;;;4907189;29;20219;-69
2022/11/25 10:37:31;;;;;;;2.40;2.28;;;6.10;99.90;;;;;;4905866;29;20203;-69
2022/11/25 10:40:06;;;;;;;3.80;3.50;;;6.10;99.90;;;;;;4890522;29;20213;-69
2022/11/25 10:42:36;;;;;;;2.95;2.65;;;6.10;99.90;;;;;;4895437;29;20227;-69
2022/11/25 10:45:07;;;;;;;1.67;1.58;;;6.10;99.90;;;;;;4895141;29;20213;-69
2022/11/25 10:47:37;;;;;;;4.63;2.88;;;6.10;99.90;;;;;;4900732;29;20616;-69
2022/11/25 10:50:14;;;;;;;2.25;2.05;;;6.20;99.90;;;;;;4897925;29;20212;-69
2022/11/25 10:52:50;;;;;;;3.72;2.72;;;6.20;99.90;;;;;;4897531;29;20272;-69
2022/11/25 10:55:23;;;;;;;8.82;4.05;;;6.20;99.90;;;;;;4901194;29;20219;-68
2022/11/25 10:57:55;;;;;;;3.80;3.60;;;6.30;99.90;;;;;;4903701;29;20572;-68
2022/11/25 11:00:29;;;;;;;6.55;6.05;;;6.30;99.90;;;;;;4884463;29;20244;-68
2022/11/25 11:02:58;;;;;;;5.03;3.13;;;6.30;99.90;;;;;;4900596;29;20204;-69
2022/11/25 11:05:30;;;;;;;2.88;2.67;;;6.30;99.90;;;;;;4896914;29;20290;-69
2022/11/25 11:08:20;;;;;;;3.47;3.25;;;6.40;99.90;;;;;;4894469;29;20216;-69
2022/11/25 11:11:10;;;;;;;1.80;1.70;;;6.40;99.90;;;;;;4891950;29;20292;-69
2022/11/25 11:13:40;;;;;;;4.60;4.28;;;6.40;99.90;;;;;;4902507;29;20552;-69
2022/11/25 11:16:25;;;;;;;4.25;3.35;;;6.40;99.90;;;;;;4904152;29;20218;-68
2022/11/25 11:18:52;;;;;;;3.13;2.95;;;6.40;99.90;;;;;;4899845;29;20283;-69
2022/11/25 11:21:28;;;;;;;4.72;3.83;;;6.40;99.90;;;;;;4895802;29;20240;-69
2022/11/25 11:23:56;;;;;;;4.15;3.85;;;6.40;99.90;;;;;;4896443;29;20208;-69
2022/11/25 11:26:26;;;;;;;3.38;3.17;;;6.40;99.90;;;;;;4899192;29;20204;-69
2022/11/25 11:29:02;;;;;;;2.10;2.00;;;6.40;99.90;;;;;;4898142;29;20650;-68
2022/11/25 11:31:33;;;;;;;5.07;4.47;;;6.40;99.90;;;;;;4901876;29;20275;-69
2022/11/25 11:34:14;;;;;;;2.95;2.75;;;6.40;99.90;;;;;;4899702;29;20223;-69
2022/11/25 11:36:55;;;;;;;4.32;3.05;;;6.40;99.90;;;;;;4882868;29;20219;-69
2022/11/25 11:39:37;;;;;;;20.48;10.40;;;6.40;99.90;;;;;;4903557;29;20235;-69
2022/11/25 11:42:13;;;;;;;13.63;8.15;;;6.40;99.90;;;;;;4906446;29;20225;-69
2022/11/25 11:44:54;;;;;;;9.10;5.82;;;6.40;99.90;;;;;;4893436;29;20687;-68
2022/11/25 11:47:28;;;;;;;5.38;4.88;;;6.50;99.90;;;;;;4896069;29;20224;-69
2022/11/25 11:50:19;;;;;;;11.32;8.20;;;6.50;99.90;;;;;;4898029;29;20640;-69
2022/11/25 11:52:54;;;;;;;21.20;6.68;;;6.60;99.90;;;;;;4898578;29;20328;-69
2022/11/25 11:55:37;;;;;;;3.33;3.03;;;6.60;99.90;;;;;;4896589;29;20213;-70
2022/11/25 11:58:17;;;;;;;5.25;3.55;;;6.60;99.90;;;;;;4913096;29;20217;-70
2022/11/25 12:00:51;;;;;;;3.33;3.10;;;6.60;99.90;;;;;;4905249;29;20328;-70
2022/11/25 12:03:21;;;;;;;15.82;5.10;;;6.70;99.90;;;;;;4913006;29;20228;-70
2022/11/25 12:05:52;;;;;;;3.63;3.40;;;6.70;99.90;;;;;;4902166;29;20232;-68
2022/11/25 12:08:27;;;;;;;5.43;4.88;;;6.70;99.90;;;;;;4900790;29;20221;-70
2022/11/25 12:10:57;;;;;;;6.78;2.83;;;6.70;99.90;;;;;;4906309;29;20239;-69
2022/11/25 12:13:32;;;;;;;3.47;3.13;;;6.70;99.90;;;;;;4925780;29;20210;-69
2022/11/25 12:16:06;;;;;;;2.28;2.08;;;6.70;99.90;;;;;;4925614;29;20208;-69
2022/11/25 12:18:44;;;;;;;7.40;6.70;;;6.80;99.90;;;;;;4915490;29;20205;-70
2022/11/25 12:21:24;;;;;;;5.78;5.35;;;6.80;99.90;;;;;;4910568;29;20225;-69
2022/11/25 12:23:58;;;;;;;7.63;6.20;;;6.80;99.90;;;;;;4907940;29;20200;-70
2022/11/25 12:26:30;;;;;;;5.25;3.55;;;6.80;99.90;;;;;;4900695;29;20220;-69
2022/11/25 12:29:03;;;;;;;6.40;5.28;;;6.90;99.90;;;;;;4899769;29;20210;-70
2022/11/25 12:31:37;;;;;;;2.97;2.83;;;6.90;99.90;;;;;;4906241;29;20546;-69
2022/11/25 12:34:09;;;;;;;4.32;4.00;;;6.90;99.90;;;;;;4906259;29;20211;-70
2022/11/25 12:36:38;;;;;;;13.57;5.90;;;6.90;99.90;;;;;;4896322;29;20220;-70
2022/11/25 12:39:15;;;;;;;2.95;2.45;;;6.80;99.90;;;;;;4897856;29;20224;-69
2022/11/25 12:41:47;;;;;;;7.68;5.10;;;6.90;99.90;;;;;;4896712;29;20566;-70
2022/11/25 12:44:21;;;;;;;8.50;5.30;;;6.90;99.90;;;;;;4893008;29;20230;-68
2022/11/25 12:46:49;;;;;;;15.75;13.90;;;6.90;99.90;;;;;;4905224;29;20216;-69
2022/11/25 12:49:19;;;;;;;16.27;12.50;;;6.90;99.90;;;;;;4894885;29;20674;-70
2022/11/25 12:52:10;;;;;;;9.57;8.02;;;6.90;99.90;;;;;;4897363;29;20234;-72
2022/11/25 12:55:14;;;;;;;10.10;6.63;;;6.90;99.90;;;;;;4894948;29;20217;-69
2022/11/25 12:58:21;;;;;;;6.25;3.65;;;6.90;99.90;;;;;;4836402;29;20214;-69
2022/11/25 13:01:29;;;;;;;4.72;4.43;;;7.00;99.90;;;;;;4903564;29;20233;-70
2022/11/25 13:04:14;;;;;;;6.82;3.50;;;7.00;99.90;;;;;;4893844;29;20221;-70
2022/11/25 13:06:59;;;;;;;2.58;2.47;;;7.00;99.90;;;;;;4894983;29;20601;-70
2022/11/25 13:09:43;;;;;;;4.25;3.83;;;7.00;99.90;;;;;;4899284;29;20220;-70
2022/11/25 13:12:21;;;;;;;4.70;4.25;;;7.10;99.90;;;;;;4896097;29;20678;-70
2022/11/25 13:15:17;;;;;;;3.20;2.92;;;7.10;99.90;;;;;;4897635;29;20554;-70
2022/11/25 13:17:48;;;;;;;2.90;2.70;;;7.10;99.90;;;;;;4894477;29;20221;-70
2022/11/25 13:20:39;;;;;;;8.88;4.35;;;7.10;99.90;;;;;;4904929;29;20252;-70
2022/11/25 13:23:23;;;;;;;5.10;2.75;;;7.10;99.90;;;;;;4904603;29;20209;-70
2022/11/25 13:25:52;;;;;;;4.10;3.88;;;7.10;99.90;;;;;;4903566;29;20290;-70
2022/11/25 13:28:30;;;;;;;4.10;3.60;;;7.00;99.90;;;;;;4912202;29;20239;-70
2022/11/25 13:31:20;;;;;;;3.30;3.00;;;7.10;99.90;;;;;;4899350;29;20569;-70
2022/11/25 13:34:24;;;;;;;2.45;2.20;;;7.00;99.90;;;;;;4899703;29;20298;-70
2022/11/25 13:36:51;;;;;;;2.85;2.75;;;7.00;99.90;;;;;;4891807;29;20227;-69
2022/11/25 13:39:28;;;;;;;2.63;2.42;;;7.10;99.90;;;;;;4902295;29;20217;-69
2022/11/25 13:42:00;;;;;;;6.63;4.13;;;7.10;99.90;;;;;;4901519;29;20223;-69
2022/11/25 13:44:31;;;;;;;2.83;2.55;;;7.10;99.90;;;;;;4896031;29;20209;-70
2022/11/25 13:47:00;;;;;;;3.25;3.05;;;7.10;99.90;;;;;;4903191;29;20650;-70
2022/11/25 13:49:33;;;;;;;5.05;4.18;;;7.20;99.90;;;;;;4893066;29;20205;-70
2022/11/25 13:52:03;;;;;;;3.67;2.67;;;7.10;99.90;;;;;;4894118;29;20261;-70
2022/11/25 13:54:35;;;;;;;2.67;2.58;;;7.20;99.90;;;;;;4903129;29;20208;-70
2022/11/25 13:57:24;;;;;;;2.47;2.38;;;7.20;99.90;;;;;;4893135;29;20209;-70
2022/11/25 13:59:55;;;;;;;2.40;1.88;;;7.20;99.90;;;;;;4890422;29;20292;-70
2022/11/25 14:02:40;;;;;;;3.50;3.30;;;7.20;99.90;;;;;;4892865;29;20242;-70
2022/11/25 14:05:52;;;;;;;3.58;3.13;;;7.30;99.90;;;;;;4894510;29;20870;-69
2022/11/25 14:08:29;;;;;;;4.00;3.70;;;7.30;99.90;;;;;;4837022;29;20271;-70
2022/11/25 14:11:09;;;;;;;3.97;3.70;;;7.30;99.90;;;;;;4886842;29;20228;-69
2022/11/25 14:13:49;;;;;;;6.93;3.40;;;7.30;99.90;;;;;;4893147;29;20229;-70
2022/11/25 14:16:31;;;;;;;3.53;3.30;;;7.40;99.90;;;;;;4904846;29;20235;-70
2022/11/25 14:19:19;;;;;;;3.03;2.92;;;7.40;99.90;;;;;;4895694;29;20210;-70
2022/11/25 14:22:10;;;;;;;3.20;2.95;;;7.40;99.90;;;;;;4885777;29;20230;-70
2022/11/25 14:24:43;;;;;;;2.50;2.25;;;7.40;99.90;;;;;;4884461;29;20221;-70
2022/11/25 14:27:15;;;;;;;3.90;3.05;;;7.50;99.90;;;;;;4892812;29;20858;-69
2022/11/25 14:29:46;;;;;;;2.58;2.35;;;7.50;99.90;;;;;;4886197;29;20285;-69
2022/11/25 14:32:18;;;;;;;3.45;3.15;;;7.50;99.90;;;;;;4887180;29;20240;-70
2022/11/25 14:34:48;;;;;;;12.10;3.60;;;7.50;99.90;;;;;;4889014;29;20273;-70
2022/11/25 14:37:22;;;;;;;1.77;1.67;;;7.50;99.90;;;;;;4887597;29;20209;-69
2022/11/25 14:39:55;;;;;;;1.58;1.55;;;7.60;99.90;;;;;;4886665;29;20529;-69
2022/11/25 14:42:26;;;;;;;2.92;2.75;;;7.50;99.90;;;;;;4900023;29;20229;-69
2022/11/25 14:44:57;;;;;;;4.00;3.10;;;7.60;99.90;;;;;;4901290;29;20673;-69
2022/11/25 14:47:25;;;;;;;2.67;2.50;;;7.60;99.90;;;;;;4893724;29;20676;-69
2022/11/25 14:49:53;;;;;;;3.95;3.65;;;7.60;99.90;;;;;;4893841;29;20221;-68
2022/11/25 14:52:23;;;;;;;5.65;3.28;;;7.70;99.90;;;;;;4893711;29;20770;-68
2022/11/25 14:54:53;;;;;;;4.97;4.53;;;7.70;99.90;;;;;;4891864;29;20296;-68
2022/11/25 14:57:23;;;;;;;2.83;2.72;;;7.70;99.90;;;;;;4885507;29;20260;-68
2022/11/25 14:59:50;;;;;;;3.40;3.03;;;7.70;99.90;;;;;;4898579;29;20209;-68
2022/11/25 15:02:26;;;;;;;6.47;3.50;;;7.70;99.90;;;;;;4902841;29;20273;-68
2022/11/25 15:04:53;;;;;;;6.40;3.63;;;7.70;99.90;;;;;;4893824;29;20221;-68
2022/11/25 15:07:22;;;;;;;4.18;3.85;;;7.70;99.90;;;;;;4897684;29;20706;-68
2022/11/25 15:09:48;;;;;;;5.60;3.63;;;7.60;99.90;;;;;;4898386;29;20607;-68
2022/11/25 15:12:20;;;;;;;3.63;3.33;;;7.60;99.90;;;;;;4891740;29;20663;-68
2022/11/25 15:14:51;;;;;;;4.95;4.63;;;7.60;99.90;;;;;;4908057;29;20216;-68
2022/11/25 15:17:25;;;;;;;9.23;3.10;;;7.60;99.90;;;;;;4894744;29;20226;-69
2022/11/25 15:19:53;;;;;;;3.20;3.10;;;7.60;99.90;;;;;;4904298;29;20220;-68
2022/11/25 15:22:21;;;;;;;3.70;3.47;;;7.60;99.90;;;;;;4890359;29;20241;-68
2022/11/25 15:24:49;;;;;;;5.50;2.60;;;7.60;99.90;;;;;;4894682;29;20213;-68
2022/11/25 15:27:19;;;;;;;4.18;3.55;;;7.60;99.90;;;;;;4889256;29;20280;-67
2022/11/25 15:29:47;;;;;;;6.10;4.35;;;7.60;99.90;;;;;;4897489;29;20205;-68
2022/11/25 15:32:17;;;;;;;4.93;4.47;;;7.60;99.90;;;;;;4906514;29;20248;-68
2022/11/25 15:34:46;;;;;;;20.60;5.70;;;7.60;99.90;;;;;;4898230;29;20214;-68
2022/11/25 15:37:13;;;;;;;7.05;3.65;;;7.60;99.90;;;;;;4898517;29;20258;-68
2022/11/25 15:39:39;;;;;;;3.20;3.05;;;7.60;99.90;;;;;;4903230;29;20208;-68
2022/11/25 15:42:14;;;;;;;8.30;4.38;;;7.70;99.90;;;;;;4897218;29;20286;-69
2022/11/25 15:44:48;;;;;;;5.25;4.22;;;7.60;99.90;;;;;;4899838;29;20212;-68
2022/11/25 15:47:22;;;;;;;4.18;3.97;;;7.60;99.90;;;;;;4892684;29;20225;-69
2022/11/25 15:49:53;;;;;;;5.40;5.10;;;7.60;99.90;;;;;;4891031;29;20668;-69
2022/11/25 15:52:22;;;;;;;3.92;3.63;;;7.60;99.90;;;;;;4888814;29;20333;-69
2022/11/25 15:54:51;;;;;;;7.85;5.45;;;7.60;99.90;;;;;;4888981;29;20216;-69
2022/11/25 15:57:21;;;;;;;5.05;4.60;;;7.60;99.90;;;;;;4889480;29;20223;-69
2022/11/25 16:00:04;;;;;;;4.65;4.20;;;7.60;99.90;;;;;;4891519;29;20221;-69
2022/11/25 16:02:34;;;;;;;12.73;6.80;;;7.60;99.90;;;;;;4889579;29;20237;-68
2022/11/25 17:45:32;;;;;;;6.50;4.75;;;7.70;99.90;;;;;;5086504;27;20568;-70
2022/11/25 17:47:59;;;;;;;12.27;7.47;;;7.70;99.90;;;;;;5080928;28;20221;-69
2022/11/25 17:50:26;;;;;;;15.55;8.85;;;7.80;99.90;;;;;;5087707;28;20651;-69
2022/11/25 17:52:53;;;;;;;10.65;8.75;;;7.80;99.90;;;;;;5083272;28;20867;-70
2022/11/25 18:08:34;;;;;;;12.13;7.18;;;7.80;99.90;;;;;;5126070;27;20591;-69
2022/11/25 18:11:02;;;;;;;11.85;9.65;;;8.00;99.90;;;;;;5112092;27;20215;-69
2022/11/25 18:13:38;;;;;;;12.65;9.40;;;8.00;99.90;;;;;;5113047;28;20223;-70
2022/11/25 18:16:06;;;;;;;9.68;8.73;;;8.00;99.90;;;;;;5095524;28;20230;-68
2022/11/25 18:18:34;;;;;;;14.05;8.15;;;8.00;99.90;;;;;;5108287;28;20226;-69
2022/11/25 18:21:00;;;;;;;8.40;7.65;;;8.00;99.90;;;;;;5100565;28;20525;-70
2022/11/25 18:23:27;;;;;;;17.00;7.53;;;8.00;99.90;;;;;;5099685;28;20210;-71
2022/11/25 18:25:58;;;;;;;14.57;7.03;;;8.00;99.90;;;;;;5104073;28;20206;-69
2022/11/25 18:28:26;;;;;;;14.80;9.20;;;8.00;99.90;;;;;;5102518;28;20657;-69
2022/11/25 18:31:02;;;;;;;18.30;9.30;;;8.00;99.90;;;;;;5110858;28;20680;-71
2022/11/25 18:33:30;;;;;;;10.23;8.20;;;8.00;99.90;;;;;;5099165;28;20211;-68
2022/11/25 18:35:57;;;;;;;13.90;7.88;;;8.00;99.90;;;;;;5111482;28;20289;-69
2022/11/25 18:38:23;;;;;;;15.88;7.75;;;8.00;99.90;;;;;;5111016;28;20226;-72
2022/11/25 18:40:50;;;;;;;11.48;9.15;;;8.00;99.90;;;;;;5103430;28;20554;-70
2022/11/25 18:43:22;;;;;;;9.98;8.25;;;8.00;99.90;;;;;;5103928;28;20210;-72
2022/11/25 18:45:49;;;;;;;11.10;10.02;;;8.00;99.90;;;;;;5093393;28;20317;-69
2022/11/25 18:48:18;;;;;;;21.05;9.45;;;8.00;99.90;;;;;;5105887;28;20222;-72
2022/11/25 18:50:46;;;;;;;26.23;8.70;;;8.00;99.90;;;;;;5093136;28;20203;-72
2022/11/25 18:53:13;;;;;;;11.88;9.40;;;8.00;99.90;;;;;;5099345;28;20578;-71
2022/11/25 18:55:40;;;;;;;11.52;9.70;;;7.90;99.90;;;;;;5106521;28;20203;-70
2022/11/25 18:58:14;;;;;;;10.90;9.02;;;7.90;99.90;;;;;;5092455;28;20229;-70
2022/11/25 19:00:42;;;;;;;29.90;8.73;;;7.90;99.90;;;;;;5099881;28;20199;-70
2022/11/25 19:03:16;;;;;;;17.70;8.55;;;7.90;99.90;;;;;;5107121;28;20210;-70
2022/11/25 19:05:42;;;;;;;15.07;9.93;;;7.90;99.90;;;;;;5102918;28;20205;-70
2022/11/25 19:08:09;;;;;;;16.58;7.45;;;7.90;99.90;;;;;;5092520;28;20238;-69
2022/11/25 19:10:38;;;;;;;9.77;8.23;;;7.90;99.90;;;;;;5093571;28;20222;-68
2022/11/25 19:13:08;;;;;;;16.33;9.57;;;7.90;99.90;;;;;;5092441;28;20211;-69
2022/11/25 19:15:36;;;;;;;8.00;6.63;;;7.90;99.90;;;;;;5083950;28;20199;-70
2022/11/25 19:18:06;;;;;;;12.18;9.70;;;7.80;99.90;;;;;;5088823;28;20308;-70
2022/11/25 19:20:33;;;;;;;11.90;9.25;;;7.80;99.90;;;;;;5091408;28;20227;-70
2022/11/25 19:23:02;;;;;;;17.50;11.38;;;7.90;99.90;;;;;;5094888;28;20214;-69
2022/11/25 19:25:29;;;;;;;13.52;8.93;;;7.80;99.90;;;;;;5086389;28;20227;-70
2022/11/25 19:27:58;;;;;;;19.33;6.65;;;7.80;99.90;;;;;;5088439;28;20274;-69
2022/11/25 19:30:27;;;;;;;11.48;8.73;;;7.80;99.90;;;;;;5084540;28;20281;-70
2022/11/25 19:32:57;;;;;;;13.60;6.72;;;7.80;99.90;;;;;;5084572;28;20241;-70
2022/11/25 19:35:27;;;;;;;10.75;7.82;;;7.90;99.90;;;;;;5090646;28;20211;-71
2022/11/25 19:37:54;;;;;;;11.63;7.03;;;7.80;99.90;;;;;;5081025;28;20725;-71
2022/11/25 19:40:23;;;;;;;10.15;7.03;;;7.80;99.90;;;;;;5076939;28;20218;-70
2022/11/25 19:42:50;;;;;;;7.30;6.60;;;7.80;99.90;;;;;;5084613;28;20249;-70
2022/11/25 19:45:19;;;;;;;11.52;5.38;;;7.80;99.90;;;;;;5090275;28;20218;-70
2022/11/25 19:47:48;;;;;;;16.25;8.15;;;7.80;99.90;;;;;;5087694;28;20219;-70
2022/11/25 19:50:20;;;;;;;8.35;6.20;;;7.90;99.90;;;;;;5088221;28;20207;-70
2022/11/25 19:55:26;;;;;;;15.38;8.18;;;7.80;99.90;;;;;;5402335;22;20255;-69
2022/11/25 19:57:53;;;;;;;7.05;5.30;;;7.90;99.90;;;;;;5028020;28;20229;-69
2022/11/25 20:00:21;;;;;;;13.18;8.10;;;7.90;99.90;;;;;;5026050;28;20209;-69
2022/11/25 20:02:50;;;;;;;23.80;9.35;;;7.90;99.90;;;;;;5036010;28;20315;-68
2022/11/25 20:05:19;;;;;;;10.57;7.90;;;7.90;99.90;;;;;;5029376;28;20233;-69
2022/11/25 20:07:47;;;;;;;17.48;9.38;;;7.90;99.90;;;;;;5027851;28;20288;-69
2022/11/25 20:10:19;;;;;;;16.55;9.15;;;8.00;99.90;;;;;;5022955;28;20631;-69
2022/11/25 20:12:47;;;;;;;20.73;6.90;;;7.90;99.90;;;;;;5029179;28;20205;-69
2022/11/25 20:15:14;;;;;;;10.32;6.90;;;8.00;99.90;;;;;;5033630;28;20237;-69
2022/11/25 20:17:45;;;;;;;15.43;8.50;;;8.00;99.90;;;;;;5029713;28;20237;-69
2022/11/25 20:20:16;;;;;;;5.53;4.65;;;8.00;99.90;;;;;;5026510;28;20212;-68
2022/11/25 20:22:50;;;;;;;9.00;7.72;;;8.00;99.90;;;;;;5034231;28;20575;-69